Nearby METAR Reports

 

EGQS - Lossiemouth Raf, United Kingdom
Distance from station: NW 60mi, 97km
Updated: 27/01/2020 15:50
Few Clouds
Few Clouds
 Wind from SW
Wind: SW 9 mph , 15 km/h
Temperature: 3°C
Wind Chill: -1°C
Dew Point: -2°C
Humidity: 70%
Barometer: 985 hPa
Clouds: Few Clouds
Visibility: 6 miles , 10 km
Cloud details: Few Clouds 610 m
2020/01/27 15:50 EGQS 271550Z 22008KT 9999 FEW020 03/M02 Q0985 NOSIG RMK BLU BLU